createdAt,value
2022-11-28T00:00:50.715Z,15.60
2022-11-28T00:05:57.648Z,14.50
2022-11-28T00:11:06.628Z,13.63
2022-11-28T00:16:16.007Z,13.53
2022-11-28T00:21:21.804Z,13.73
2022-11-28T00:26:31.682Z,13.20
2022-11-28T00:31:43.022Z,13.83
2022-11-28T00:36:50.158Z,13.07
2022-11-28T00:41:57.879Z,15.10
2022-11-28T00:47:02.806Z,13.67
2022-11-28T00:52:08.197Z,15.57
2022-11-28T00:57:15.694Z,16.07
2022-11-28T01:02:23.543Z,14.57
2022-11-28T01:07:28.721Z,15.90
2022-11-28T01:12:36.325Z,14.77
2022-11-28T01:17:41.384Z,14.17
2022-11-28T01:22:46.204Z,13.77
2022-11-28T01:27:54.941Z,13.13
2022-11-28T01:32:59.929Z,13.43
2022-11-28T01:38:05.072Z,13.27
2022-11-28T01:43:13.046Z,11.93
2022-11-28T01:48:23.592Z,12.80
2022-11-28T01:53:30.544Z,12.40
2022-11-28T01:58:43.341Z,12.20
2022-11-28T02:03:52.159Z,12.30
2022-11-28T02:08:58.332Z,12.00
2022-11-28T02:14:18.575Z,11.90
2022-11-28T02:19:54.422Z,11.97
2022-11-28T02:25:23.633Z,10.87
2022-11-28T02:30:37.081Z,12.33
2022-11-28T02:35:55.673Z,11.60
2022-11-28T02:41:05.457Z,13.13
2022-11-28T02:46:14.946Z,12.70
2022-11-28T02:51:29.236Z,13.30
2022-11-28T02:56:34.297Z,12.93
2022-11-28T03:01:41.102Z,14.00
2022-11-28T03:06:59.434Z,13.57
2022-11-28T03:12:18.065Z,13.43
2022-11-28T03:17:32.504Z,12.40
2022-11-28T03:22:47.568Z,12.10
2022-11-28T03:27:57.087Z,11.43
2022-11-28T03:33:06.066Z,12.97
2022-11-28T03:38:19.343Z,12.53
2022-11-28T03:43:31.026Z,13.07
2022-11-28T03:48:39.852Z,12.13
2022-11-28T03:53:54.135Z,13.63
2022-11-28T03:59:05.215Z,13.20
2022-11-28T04:04:17.275Z,13.43
2022-11-28T04:09:38.488Z,14.40
2022-11-28T04:14:50.348Z,13.10
2022-11-28T04:20:02.500Z,14.43
2022-11-28T04:25:15.044Z,14.70
2022-11-28T04:30:20.481Z,13.17
2022-11-28T04:35:31.724Z,12.87
2022-11-28T04:40:45.408Z,13.63
2022-11-28T04:45:54.540Z,14.23
2022-11-28T04:51:09.567Z,13.67
2022-11-28T04:56:22.692Z,15.17
2022-11-28T05:01:33.879Z,13.43
2022-11-28T05:06:42.502Z,13.87
2022-11-28T05:11:50.165Z,15.17
2022-11-28T05:16:55.266Z,14.37
2022-11-28T05:22:00.548Z,14.77
2022-11-28T05:27:11.800Z,15.10
2022-11-28T05:32:18.492Z,14.60
2022-11-28T05:37:23.658Z,13.57
2022-11-28T05:42:35.233Z,14.47
2022-11-28T05:47:40.457Z,13.93
2022-11-28T05:52:49.037Z,13.33
2022-11-28T05:57:56.843Z,13.70
2022-11-28T06:03:02.588Z,13.17
2022-11-28T06:08:23.587Z,12.17
2022-11-28T06:13:40.337Z,12.27
2022-11-28T06:18:46.145Z,12.70
2022-11-28T06:23:51.277Z,11.80
2022-11-28T06:29:02.990Z,12.03
2022-11-28T06:34:09.053Z,11.87
2022-11-28T06:39:18.256Z,11.67
2022-11-28T06:44:25.921Z,11.07
2022-11-28T06:49:33.586Z,12.73
2022-11-28T06:54:46.461Z,11.63
2022-11-28T06:59:55.157Z,12.40
2022-11-28T07:05:01.475Z,11.50
2022-11-28T07:10:18.626Z,11.57
2022-11-28T07:15:29.175Z,11.60
2022-11-28T07:20:41.022Z,12.50
2022-11-28T07:25:49.036Z,10.60
2022-11-28T07:31:07.823Z,11.97
2022-11-28T07:36:19.097Z,11.50
2022-11-28T07:41:27.041Z,12.10
2022-11-28T07:46:37.098Z,11.97
2022-11-28T07:51:45.175Z,13.03
2022-11-28T08:02:24.250Z,12.83
2022-11-28T08:07:29.353Z,11.63
2022-11-28T08:12:40.182Z,11.33
2022-11-28T08:17:53.503Z,11.47
2022-11-28T08:22:58.764Z,12.03
2022-11-28T08:28:06.318Z,11.40
2022-11-28T08:33:13.969Z,9.97
2022-11-28T08:38:19.812Z,10.13
2022-11-28T08:43:24.976Z,11.33
2022-11-28T08:48:37.938Z,11.10
2022-11-28T08:53:46.068Z,11.73
2022-11-28T08:58:56.341Z,11.83
2022-11-28T09:04:07.378Z,11.20
2022-11-28T09:09:15.840Z,10.37
2022-11-28T09:14:24.223Z,11.10
2022-11-28T09:19:39.463Z,11.10
2022-11-28T09:24:46.807Z,11.73
2022-11-28T09:29:52.252Z,11.80
2022-11-28T09:35:02.498Z,11.90
2022-11-28T09:40:13.602Z,12.67
2022-11-28T09:45:22.194Z,11.70
2022-11-28T09:50:36.405Z,12.57
2022-11-28T09:55:51.073Z,12.53
2022-11-28T10:01:10.929Z,12.17
2022-11-28T10:06:28.782Z,12.40
2022-11-28T10:11:49.636Z,13.43
2022-11-28T10:17:04.652Z,13.70
2022-11-28T10:22:26.160Z,13.17
2022-11-28T10:27:39.484Z,13.97
2022-11-28T10:32:55.544Z,12.87
2022-11-28T10:38:09.676Z,12.13
2022-11-28T10:43:27.472Z,13.67
2022-11-28T10:48:43.884Z,12.97
2022-11-28T10:53:58.815Z,14.00
2022-11-28T10:59:20.707Z,13.47
2022-11-28T11:04:31.941Z,13.03
2022-11-28T11:09:39.804Z,12.20
2022-11-28T11:14:47.246Z,13.57
2022-11-28T11:19:52.302Z,14.10
2022-11-28T11:25:17.413Z,13.37
2022-11-28T11:30:29.453Z,13.33
2022-11-28T11:35:39.347Z,14.83
2022-11-28T11:40:48.360Z,14.53
2022-11-28T11:46:08.326Z,14.50
2022-11-28T11:51:26.824Z,14.17
2022-11-28T11:56:38.860Z,13.70
2022-11-28T12:01:49.604Z,14.30
2022-11-28T12:06:59.366Z,14.70
2022-11-28T12:12:15.140Z,14.10
2022-11-28T12:17:55.680Z,15.27
2022-11-28T12:23:17.001Z,15.17
2022-11-28T12:28:40.930Z,14.30
2022-11-28T12:33:59.661Z,14.57
2022-11-28T12:39:31.999Z,15.20
2022-11-28T12:44:53.778Z,14.83
2022-11-28T12:50:06.361Z,14.50
2022-11-28T12:55:28.722Z,15.37
2022-11-28T13:00:55.453Z,14.93
2022-11-28T13:06:16.768Z,14.17
2022-11-28T13:11:41.281Z,13.90
2022-11-28T13:16:53.284Z,12.33
2022-11-28T13:22:07.681Z,14.67
2022-11-28T13:27:23.768Z,13.87
2022-11-28T13:32:43.908Z,14.57
2022-11-28T13:43:33.139Z,16.07
2022-11-28T13:49:20.525Z,14.00
2022-11-28T13:54:50.206Z,15.00
2022-11-28T14:00:19.886Z,14.23
2022-11-28T14:05:41.700Z,14.80
2022-11-28T14:11:27.407Z,14.60
2022-11-28T14:16:55.700Z,14.23
2022-11-28T14:22:22.846Z,15.03
2022-11-28T14:27:34.560Z,16.63
2022-11-28T14:32:48.746Z,16.57
2022-11-28T14:38:03.771Z,15.53
2022-11-28T14:43:28.186Z,15.40
2022-11-28T14:48:34.134Z,14.60
2022-11-28T14:53:58.935Z,15.33
2022-11-28T14:59:06.444Z,15.63
2022-11-28T15:04:40.786Z,14.70
2022-11-28T15:10:07.407Z,14.50
2022-11-28T15:15:17.627Z,16.30
2022-11-28T15:20:31.342Z,14.90
2022-11-28T15:25:41.308Z,14.70
2022-11-28T15:30:49.465Z,15.83
2022-11-28T15:36:04.420Z,16.17
2022-11-28T15:41:12.752Z,15.83
2022-11-28T15:46:24.505Z,14.83
2022-11-28T15:51:35.762Z,14.77
2022-11-28T15:56:58.649Z,16.40
2022-11-28T16:02:16.055Z,16.43
2022-11-28T16:07:23.714Z,15.27
2022-11-28T16:12:36.376Z,18.20
2022-11-28T16:17:43.431Z,17.23
2022-11-28T16:22:48.614Z,17.33
2022-11-28T16:27:59.463Z,16.80
2022-11-28T16:33:04.460Z,18.10
2022-11-28T16:38:18.572Z,17.73
2022-11-28T16:43:33.873Z,17.80
2022-11-28T16:48:40.801Z,18.70
2022-11-28T16:53:48.010Z,19.40
2022-11-28T16:58:57.944Z,21.07
2022-11-28T17:04:03.249Z,18.43
2022-11-28T17:09:10.211Z,19.67
2022-11-28T17:14:18.184Z,19.23
2022-11-28T17:19:23.373Z,19.03
2022-11-28T17:24:36.422Z,19.43
2022-11-28T17:29:44.761Z,20.17
2022-11-28T17:34:50.417Z,20.17
2022-11-28T17:40:13.549Z,19.97
2022-11-28T17:45:25.524Z,18.63
2022-11-28T17:50:31.360Z,19.50
2022-11-28T17:55:36.405Z,18.03
2022-11-28T18:00:44.510Z,19.20
2022-11-28T18:05:54.703Z,18.60
2022-11-28T18:11:08.021Z,17.10
2022-11-28T18:16:17.081Z,18.33
2022-11-28T18:21:22.996Z,17.80
2022-11-28T18:26:28.852Z,18.40
2022-11-28T18:31:37.148Z,19.17
2022-11-28T18:36:43.841Z,17.93
2022-11-28T18:41:48.719Z,18.00
2022-11-28T18:46:56.982Z,18.13
2022-11-28T18:52:02.466Z,18.57
2022-11-28T18:57:07.914Z,17.83
2022-11-28T19:02:16.770Z,18.57
2022-11-28T19:07:21.924Z,17.93
2022-11-28T19:12:27.977Z,19.90
2022-11-28T19:17:37.155Z,17.50
2022-11-28T19:22:44.285Z,19.00
2022-11-28T19:27:50.919Z,18.00
2022-11-28T19:32:58.845Z,18.03
2022-11-28T19:38:07.153Z,18.60
2022-11-28T19:43:14.203Z,19.83
2022-11-28T19:48:22.195Z,18.00
2022-11-28T19:53:28.526Z,18.80
2022-11-28T19:58:34.556Z,18.80
2022-11-28T20:03:45.241Z,18.17
2022-11-28T20:08:51.579Z,20.00
2022-11-28T20:13:59.968Z,20.60
2022-11-28T20:19:09.891Z,20.17
2022-11-28T20:24:15.592Z,21.17
2022-11-28T20:29:26.885Z,20.17
2022-11-28T20:34:35.189Z,20.47
2022-11-28T20:39:40.905Z,19.43
2022-11-28T20:44:46.449Z,18.97
2022-11-28T20:49:55.854Z,18.33
2022-11-28T20:55:02.560Z,19.70
2022-11-28T21:00:09.409Z,20.40
2022-11-28T21:05:17.160Z,22.33
2022-11-28T21:10:22.291Z,18.67
2022-11-28T21:15:27.896Z,20.20
2022-11-28T21:20:35.770Z,21.13
2022-11-28T21:25:41.468Z,20.03
2022-11-28T21:30:48.640Z,20.37
2022-11-28T21:35:57.821Z,20.23
2022-11-28T21:41:06.612Z,19.80
2022-11-28T21:46:14.371Z,20.37
2022-11-28T21:51:23.665Z,18.87
2022-11-28T21:56:29.004Z,18.37
2022-11-28T22:01:34.038Z,19.37
2022-11-28T22:06:41.830Z,19.47
2022-11-28T22:11:46.798Z,20.80
2022-11-28T22:16:51.978Z,18.50
2022-11-28T22:21:59.773Z,17.97
2022-11-28T22:27:05.281Z,19.77
2022-11-28T22:32:11.538Z,19.27
2022-11-28T22:37:19.242Z,20.00
2022-11-28T22:42:24.506Z,18.93
2022-11-28T22:47:29.872Z,18.47
2022-11-28T22:52:38.139Z,19.23
2022-11-28T22:57:44.380Z,18.63
2022-11-28T23:02:50.335Z,17.87
2022-11-28T23:07:58.147Z,20.27
2022-11-28T23:13:09.078Z,21.13
2022-11-28T23:18:14.100Z,20.43
2022-11-28T23:23:21.809Z,19.87
2022-11-28T23:28:26.843Z,20.47
2022-11-28T23:33:34.123Z,19.97
2022-11-28T23:38:41.699Z,19.27
2022-11-28T23:43:47.001Z,22.83
2022-11-28T23:48:53.648Z,22.53
2022-11-28T23:54:01.448Z,22.10
2022-11-28T23:59:10.325Z,21.03
